createdAt,value
2022-09-06T00:01:59.041Z,1.67
2022-09-06T00:04:39.400Z,1.90
2022-09-06T00:07:26.023Z,1.20
2022-09-06T00:10:12.981Z,1.30
2022-09-06T00:13:00.012Z,1.23
2022-09-06T00:15:40.805Z,1.00
2022-09-06T00:18:28.174Z,1.50
2022-09-06T00:21:23.951Z,1.30
2022-09-06T00:24:11.034Z,1.20
2022-09-06T00:26:51.386Z,1.30
2022-09-06T00:29:37.997Z,1.83
2022-09-06T00:32:24.970Z,1.58
2022-09-06T00:35:12.981Z,1.25
2022-09-06T00:38:01.335Z,21.50
2022-09-06T00:40:48.966Z,3.25
2022-09-06T00:43:35.979Z,1.83
2022-09-06T00:46:28.072Z,5.18
2022-09-06T00:49:19.959Z,3.28
2022-09-06T00:52:16.965Z,1.60
2022-09-06T00:54:57.925Z,2.10
2022-09-06T00:57:44.969Z,1.48
2022-09-06T01:00:25.373Z,1.33
2022-09-06T01:03:11.985Z,1.58
2022-09-06T01:06:17.167Z,1.60
2022-09-06T01:09:19.954Z,2.40
2022-09-06T01:12:24.911Z,2.13
2022-09-06T01:15:30.014Z,1.80
2022-09-06T01:18:34.952Z,2.13
2022-09-06T01:21:24.904Z,2.38
2022-09-06T01:24:20.940Z,2.13
2022-09-06T01:27:10.918Z,2.35
2022-09-06T01:30:05.844Z,2.40
2022-09-06T01:33:03.924Z,2.47
2022-09-06T01:35:46.446Z,2.55
2022-09-06T01:38:32.896Z,2.22
2022-09-06T01:41:13.349Z,2.72
2022-09-06T01:44:03.906Z,2.50
2022-09-06T01:47:32.895Z,2.40
2022-09-06T01:50:25.034Z,3.17
2022-09-06T01:53:29.012Z,2.78
2022-09-06T01:56:14.993Z,3.17
2022-09-06T01:59:23.854Z,2.10
2022-09-06T02:02:20.974Z,2.53
2022-09-06T02:05:30.893Z,2.50
2022-09-06T02:08:19.993Z,1.85
2022-09-06T02:11:12.846Z,1.98
2022-09-06T02:14:03.963Z,2.17
2022-09-06T02:16:54.967Z,2.10
2022-09-06T02:19:43.478Z,2.03
2022-09-06T02:22:33.858Z,1.95
2022-09-06T02:25:23.841Z,2.38
2022-09-06T02:28:12.829Z,2.30
2022-09-06T02:31:03.986Z,2.50
2022-09-06T02:33:52.827Z,2.45
2022-09-06T02:36:39.823Z,2.22
2022-09-06T02:39:26.849Z,2.38
2022-09-06T02:42:14.842Z,2.33
2022-09-06T02:45:01.819Z,2.20
2022-09-06T02:47:42.000Z,2.53
2022-09-06T02:50:28.836Z,2.40
2022-09-06T02:53:27.836Z,2.22
2022-09-06T02:56:08.752Z,2.35
2022-09-06T02:58:56.793Z,2.85
2022-09-06T03:01:43.902Z,2.20
2022-09-06T03:04:30.797Z,2.70
2022-09-06T03:26:14.632Z,3.60
2022-09-06T03:28:54.993Z,4.22
2022-09-06T03:31:41.644Z,3.65
2022-09-06T03:34:21.988Z,3.42
2022-09-06T03:37:08.619Z,3.90
2022-09-06T03:39:49.061Z,3.65
2022-09-06T03:42:35.638Z,3.90
2022-09-06T03:45:16.033Z,3.38
2022-09-06T03:48:02.606Z,3.40
2022-09-06T03:50:51.009Z,4.07
2022-09-06T03:53:38.581Z,3.92
2022-09-06T03:56:19.113Z,3.67
2022-09-06T03:59:05.566Z,4.18
2022-09-06T04:01:45.967Z,4.07
2022-09-06T04:04:32.591Z,3.92
2022-09-06T04:07:19.607Z,3.58
2022-09-06T04:10:06.560Z,3.42
2022-09-06T04:12:53.683Z,4.32
2022-09-06T04:15:33.583Z,4.82
2022-09-06T04:18:14.762Z,4.50
2022-09-06T04:21:03.551Z,4.85
2022-09-06T04:23:57.540Z,5.05
2022-09-06T04:26:44.598Z,5.40
2022-09-06T04:29:31.556Z,4.60
2022-09-06T04:32:12.037Z,4.93
2022-09-06T04:34:58.534Z,4.40
2022-09-06T04:37:39.046Z,4.78
2022-09-06T04:40:25.550Z,4.40
2022-09-06T04:43:05.933Z,5.10
2022-09-06T04:45:52.577Z,5.88
2022-09-06T04:48:39.524Z,5.68
2022-09-06T04:51:19.694Z,5.82
2022-09-06T04:54:06.553Z,5.95
2022-09-06T04:56:46.634Z,6.05
2022-09-06T04:59:33.530Z,5.22
2022-09-06T05:02:27.597Z,5.82
2022-09-06T05:05:07.517Z,6.60
2022-09-06T05:07:48.045Z,6.28
2022-09-06T05:10:35.479Z,4.85
2022-09-06T05:13:22.528Z,4.97
2022-09-06T05:16:02.706Z,5.68
2022-09-06T05:18:49.501Z,4.55
2022-09-06T05:21:29.602Z,4.90
2022-09-06T05:24:16.454Z,5.82
2022-09-06T05:27:03.494Z,4.97
2022-09-06T05:29:50.477Z,4.80
2022-09-06T05:32:30.627Z,4.80
2022-09-06T05:35:17.557Z,5.85
2022-09-06T05:37:57.552Z,5.20
2022-09-06T05:40:44.517Z,5.35
2022-09-06T05:43:31.464Z,5.25
2022-09-06T05:46:18.581Z,4.80
2022-09-06T05:49:14.457Z,5.10
2022-09-06T05:52:01.464Z,4.97
2022-09-06T05:54:41.614Z,5.43
2022-09-06T05:57:28.441Z,5.13
2022-09-06T06:00:15.440Z,4.85
2022-09-06T06:03:02.444Z,5.07
2022-09-06T06:05:42.554Z,5.40
2022-09-06T06:08:29.460Z,5.50
2022-09-06T06:11:09.570Z,5.18
2022-09-06T06:13:57.445Z,5.90
2022-09-06T06:16:44.473Z,4.97
2022-09-06T06:19:26.673Z,3.78
2022-09-06T06:22:13.422Z,4.65
2022-09-06T06:25:07.424Z,5.05
2022-09-06T06:27:54.399Z,5.35
2022-09-06T06:30:41.412Z,4.90
2022-09-06T06:33:28.408Z,4.72
2022-09-06T06:36:11.518Z,1.88
2022-09-06T06:39:01.444Z,2.63
2022-09-06T06:41:41.590Z,1.88
2022-09-06T06:44:59.441Z,1.40
2022-09-06T06:47:39.510Z,1.63
2022-09-06T06:50:26.443Z,1.50
2022-09-06T06:53:06.477Z,1.33
2022-09-06T06:55:55.407Z,1.10
2022-09-06T06:58:37.486Z,1.10
2022-09-06T07:01:27.602Z,1.17
2022-09-06T07:04:09.249Z,1.17
2022-09-06T07:13:17.365Z,1.10
2022-09-06T07:15:57.582Z,1.60
2022-09-06T07:18:48.405Z,2.35
2022-09-06T07:21:37.719Z,1.40
2022-09-06T07:24:25.393Z,1.30
2022-09-06T07:30:13.385Z,1.13
2022-09-06T07:33:00.390Z,1.10
2022-09-06T07:35:41.754Z,1.52
2022-09-06T07:38:28.354Z,1.38
2022-09-06T07:41:17.332Z,0.98
2022-09-06T07:44:01.496Z,1.30
2022-09-06T07:46:48.408Z,1.05
2022-09-06T07:49:35.377Z,1.60
2022-09-06T07:55:22.329Z,1.10
2022-09-06T07:58:09.351Z,3.33
2022-09-06T08:00:49.454Z,2.72
2022-09-06T08:03:37.315Z,1.30
2022-09-06T08:06:24.297Z,1.00
2022-09-06T08:09:15.366Z,1.10
2022-09-06T08:12:02.325Z,1.25
2022-09-06T08:14:49.398Z,1.42
2022-09-06T08:17:29.429Z,0.93
2022-09-06T08:20:16.299Z,1.20
2022-09-06T08:23:03.330Z,1.20
2022-09-06T08:25:57.310Z,0.90
2022-09-06T08:28:37.900Z,1.05
2022-09-06T08:31:27.387Z,1.20
2022-09-06T08:34:14.350Z,1.77
2022-09-06T08:36:54.398Z,1.23
2022-09-06T08:39:41.381Z,1.30
2022-09-06T08:42:28.291Z,1.45
2022-09-06T08:45:12.624Z,1.17
2022-09-06T08:47:59.310Z,1.20
2022-09-06T08:50:46.396Z,1.38
2022-09-06T08:53:33.261Z,1.15
2022-09-06T08:56:25.413Z,1.30
2022-09-06T08:59:15.276Z,1.73
2022-09-06T09:02:15.847Z,1.25
2022-09-06T09:05:16.290Z,1.45
2022-09-06T09:08:35.296Z,1.00
2022-09-06T09:11:29.939Z,1.30
2022-09-06T09:17:09.366Z,1.20
2022-09-06T09:19:56.253Z,1.20
2022-09-06T09:22:36.453Z,1.10
2022-09-06T09:25:28.251Z,1.20
2022-09-06T09:28:16.259Z,1.52
2022-09-06T09:30:57.333Z,0.90
2022-09-06T09:33:49.257Z,1.25
2022-09-06T09:36:36.215Z,1.55
2022-09-06T09:39:25.316Z,1.23
2022-09-06T09:42:14.242Z,1.38
2022-09-06T09:44:54.318Z,1.02
2022-09-06T09:47:41.234Z,1.70
2022-09-06T09:50:44.213Z,1.30
2022-09-06T09:53:26.156Z,1.67
2022-09-06T09:56:13.188Z,1.20
2022-09-06T09:59:03.260Z,1.15
2022-09-06T10:01:52.205Z,1.30
2022-09-06T10:04:43.729Z,1.75
2022-09-06T10:07:38.198Z,1.38
2022-09-06T10:10:26.016Z,1.20
2022-09-06T10:13:41.209Z,1.17
2022-09-06T10:16:41.863Z,0.98
2022-09-06T10:19:58.228Z,0.77
2022-09-06T10:22:54.564Z,1.30
2022-09-06T10:26:01.190Z,1.63
2022-09-06T10:28:42.199Z,1.02
2022-09-06T10:32:00.177Z,1.20
2022-09-06T10:35:04.208Z,1.20
2022-09-06T10:38:39.207Z,1.30
2022-09-06T10:45:05.306Z,1.20
2022-09-06T10:48:28.410Z,1.35
2022-09-06T10:51:21.255Z,1.23
2022-09-06T10:54:13.188Z,0.93
2022-09-06T11:00:54.146Z,1.15
2022-09-06T11:06:43.167Z,1.52
2022-09-06T11:09:37.139Z,1.52
2022-09-06T11:15:20.332Z,1.00
2022-09-06T11:18:25.196Z,1.27
2022-09-06T11:21:30.231Z,0.80
2022-09-06T11:24:59.146Z,1.05
2022-09-06T11:27:49.340Z,1.02
2022-09-06T11:30:32.147Z,1.25
2022-09-06T11:33:35.157Z,1.00
2022-09-06T11:36:33.256Z,2.40
2022-09-06T11:42:55.144Z,1.40
2022-09-06T11:45:58.174Z,1.43
2022-09-06T11:48:50.248Z,1.08
2022-09-06T11:51:41.108Z,1.05
2022-09-06T11:54:30.205Z,1.05
2022-09-06T11:57:15.942Z,1.00
2022-09-06T12:00:11.114Z,1.13
2022-09-06T12:02:52.919Z,1.23
2022-09-06T12:05:45.105Z,1.10
2022-09-06T12:08:34.335Z,1.00
2022-09-06T12:11:48.126Z,1.10
2022-09-06T12:14:43.050Z,1.25
2022-09-06T12:17:33.076Z,1.25
2022-09-06T12:20:48.184Z,1.35
2022-09-06T12:26:54.485Z,1.45
2022-09-06T12:29:43.089Z,1.27
2022-09-06T12:32:28.595Z,1.23
2022-09-06T12:38:24.519Z,1.02
2022-09-06T12:41:04.282Z,0.90
2022-09-06T12:43:51.063Z,0.85
2022-09-06T12:46:39.165Z,1.10
2022-09-06T12:49:28.056Z,0.85
2022-09-06T12:52:29.076Z,1.27
2022-09-06T12:55:44.094Z,1.52
2022-09-06T13:01:33.156Z,1.17
2022-09-06T13:04:36.051Z,1.48
2022-09-06T13:07:18.918Z,1.50
2022-09-06T13:10:10.070Z,1.25
2022-09-06T13:13:00.004Z,0.80
2022-09-06T13:15:47.137Z,1.25
2022-09-06T13:18:45.053Z,1.70
2022-09-06T13:21:39.162Z,1.65
2022-09-06T13:24:54.020Z,1.00
2022-09-06T13:30:49.843Z,1.35
2022-09-06T13:33:32.250Z,1.15
2022-09-06T13:36:19.039Z,1.00
2022-09-06T13:39:00.193Z,1.23
2022-09-06T13:41:48.010Z,1.02
2022-09-06T13:44:36.170Z,1.40
2022-09-06T13:47:22.995Z,1.67
2022-09-06T13:50:03.219Z,1.10
2022-09-06T13:52:49.982Z,1.08
2022-09-06T13:55:42.020Z,1.17
2022-09-06T13:58:22.445Z,2.00
2022-09-06T14:01:09.082Z,1.15
2022-09-06T14:03:56.980Z,1.38
2022-09-06T14:06:37.245Z,1.05
2022-09-06T14:09:23.973Z,1.08
2022-09-06T14:12:44.969Z,1.30
2022-09-06T14:15:25.735Z,0.98
2022-09-06T14:18:14.576Z,1.48
2022-09-06T14:21:02.101Z,1.00
2022-09-06T14:23:41.963Z,1.25
2022-09-06T14:26:30.092Z,1.15
2022-09-06T14:29:09.972Z,1.40
2022-09-06T14:31:56.965Z,1.40
2022-09-06T14:34:37.064Z,1.20
2022-09-06T14:37:23.911Z,1.23
2022-09-06T14:40:39.948Z,1.00
2022-09-06T14:43:20.390Z,1.20
2022-09-06T14:46:06.997Z,1.30
2022-09-06T14:48:53.951Z,1.58
2022-09-06T14:51:34.298Z,1.30
2022-09-06T14:54:24.177Z,1.08
2022-09-06T14:57:07.038Z,1.13
2022-09-06T14:59:53.921Z,0.90
2022-09-06T15:02:34.194Z,1.20
2022-09-06T15:05:20.907Z,1.20
2022-09-06T15:08:01.081Z,1.25
2022-09-06T15:10:47.887Z,1.42
2022-09-06T15:27:54.785Z,1.53
2022-09-06T15:30:41.841Z,1.23
2022-09-06T15:33:21.919Z,1.48
2022-09-06T15:36:12.799Z,1.23
2022-09-06T15:38:56.403Z,1.27
2022-09-06T15:41:45.769Z,1.50
2022-09-06T15:44:26.926Z,1.67
2022-09-06T15:47:13.773Z,1.60
2022-09-06T15:49:53.949Z,1.17
2022-09-06T15:52:40.746Z,1.00
2022-09-06T15:55:41.621Z,1.70
2022-09-06T15:58:21.754Z,1.58
2022-09-06T16:01:08.762Z,1.30
2022-09-06T16:04:01.733Z,1.20
2022-09-06T16:06:42.703Z,1.55
2022-09-06T16:09:29.708Z,1.33
2022-09-06T16:12:16.861Z,1.60
2022-09-06T16:14:57.044Z,1.60
2022-09-06T16:17:43.764Z,1.50
2022-09-06T16:20:23.830Z,1.58
2022-09-06T16:23:10.718Z,1.38
2022-09-06T16:25:58.919Z,1.13
2022-09-06T16:28:45.714Z,1.70
2022-09-06T16:31:27.056Z,1.75
2022-09-06T16:34:14.687Z,1.63
2022-09-06T16:37:02.725Z,1.30
2022-09-06T16:39:50.735Z,1.95
2022-09-06T16:42:37.684Z,1.17
2022-09-06T16:45:24.686Z,2.92
2022-09-06T16:48:04.835Z,1.20
2022-09-06T16:50:51.699Z,1.60
2022-09-06T16:53:31.813Z,2.08
2022-09-06T16:56:21.655Z,1.90
2022-09-06T16:59:11.694Z,1.70
2022-09-06T17:01:58.815Z,1.90
2022-09-06T17:04:38.759Z,2.15
2022-09-06T17:07:25.646Z,2.22
2022-09-06T17:10:13.693Z,2.25
2022-09-06T17:12:54.155Z,2.42
2022-09-06T17:16:00.680Z,1.92
2022-09-06T17:18:47.618Z,1.67
2022-09-06T17:21:36.669Z,1.42
2022-09-06T17:24:23.849Z,2.28
2022-09-06T17:27:03.681Z,1.90
2022-09-06T17:29:44.058Z,1.65
2022-09-06T17:32:30.650Z,1.98
2022-09-06T17:35:17.671Z,1.38
2022-09-06T17:37:57.794Z,1.75
2022-09-06T17:40:44.661Z,1.58
2022-09-06T17:43:31.619Z,1.80
2022-09-06T17:46:18.716Z,1.90
2022-09-06T17:48:58.782Z,2.17
2022-09-06T17:51:45.613Z,2.08
2022-09-06T17:54:32.637Z,1.50
2022-09-06T17:57:13.043Z,1.50
2022-09-06T17:59:59.648Z,1.98
2022-09-06T18:02:40.173Z,1.75
2022-09-06T18:05:26.707Z,1.50
2022-09-06T18:08:14.626Z,3.28
2022-09-06T18:11:01.621Z,4.38
2022-09-06T18:13:43.058Z,2.05
2022-09-06T18:16:29.639Z,2.47
2022-09-06T18:19:10.028Z,1.55
2022-09-06T18:21:56.582Z,1.95
2022-09-06T18:24:43.584Z,2.10
2022-09-06T18:27:23.721Z,2.22
2022-09-06T18:30:14.636Z,2.22
2022-09-06T18:32:54.962Z,1.67
2022-09-06T18:35:48.596Z,2.40
2022-09-06T18:38:35.536Z,1.85
2022-09-06T18:41:42.591Z,1.63
2022-09-06T18:44:23.229Z,1.83
2022-09-06T18:47:14.797Z,1.50
2022-09-06T18:50:01.787Z,2.30
2022-09-06T18:52:42.237Z,1.40
2022-09-06T18:55:28.801Z,2.58
2022-09-06T18:58:17.802Z,2.15
2022-09-06T19:00:57.888Z,2.47
2022-09-06T19:03:45.890Z,2.72
2022-09-06T19:06:34.808Z,2.25
2022-09-06T19:09:23.901Z,2.17
2022-09-06T19:12:03.734Z,2.33
2022-09-06T19:14:50.901Z,1.60
2022-09-06T19:17:30.739Z,2.22
2022-09-06T19:20:15.022Z,2.08
2022-09-06T19:23:04.738Z,2.13
2022-09-06T19:25:51.780Z,2.00
2022-09-06T19:28:33.129Z,1.73
2022-09-06T19:31:20.820Z,2.03
2022-09-06T19:34:08.702Z,1.60
2022-09-06T19:36:57.426Z,1.90
2022-09-06T19:39:38.623Z,2.08
2022-09-06T19:42:19.109Z,1.20
2022-09-06T19:45:05.506Z,2.85
2022-09-06T19:47:52.551Z,2.55
2022-09-06T19:50:32.686Z,3.13
2022-09-06T19:53:19.462Z,3.45
2022-09-06T19:56:06.467Z,2.75
2022-09-06T19:58:47.104Z,3.13
2022-09-06T20:01:33.558Z,3.05
2022-09-06T20:04:21.495Z,5.75
2022-09-06T20:07:02.677Z,4.00
2022-09-06T20:09:52.436Z,3.63
2022-09-06T20:12:32.769Z,3.25
2022-09-06T20:15:20.482Z,3.45
2022-09-06T20:18:00.577Z,3.65
2022-09-06T20:20:47.456Z,2.67
2022-09-06T20:23:29.217Z,3.67
2022-09-06T20:26:20.482Z,3.10
2022-09-06T20:29:09.441Z,3.40
2022-09-06T20:31:56.527Z,3.45
2022-09-06T20:34:36.555Z,3.10
2022-09-06T20:37:23.480Z,3.00
2022-09-06T20:40:04.775Z,5.30
2022-09-06T20:42:52.462Z,4.63
2022-09-06T20:45:32.563Z,4.30
2022-09-06T20:48:19.438Z,4.45
2022-09-06T20:51:04.975Z,3.83
2022-09-06T20:53:58.419Z,3.53
2022-09-06T20:56:48.438Z,4.65
2022-09-06T20:59:35.813Z,3.60
2022-09-06T21:02:15.455Z,3.40
2022-09-06T21:05:02.503Z,3.10
2022-09-06T21:07:42.423Z,3.47
2022-09-06T21:10:29.402Z,3.78
2022-09-06T21:13:17.387Z,3.88
2022-09-06T21:16:04.503Z,3.75
2022-09-06T21:18:44.569Z,3.45
2022-09-06T21:21:32.421Z,3.65
2022-09-06T21:24:21.493Z,2.95
2022-09-06T21:27:01.829Z,4.43
2022-09-06T21:29:48.395Z,3.38
2022-09-06T21:32:28.795Z,3.20
2022-09-06T21:35:15.433Z,3.22
2022-09-06T21:37:55.769Z,3.53
2022-09-06T21:40:42.388Z,2.67
2022-09-06T21:43:22.964Z,2.70
2022-09-06T21:46:09.418Z,3.30
2022-09-06T21:48:51.842Z,2.88
2022-09-06T21:51:40.359Z,3.20
2022-09-06T21:54:27.369Z,2.70
2022-09-06T21:57:07.500Z,2.42
2022-09-06T21:59:54.316Z,2.97
2022-09-06T22:02:45.356Z,3.10
2022-09-06T22:05:32.334Z,3.10
2022-09-06T22:08:12.448Z,3.05
2022-09-06T22:10:59.331Z,3.20
2022-09-06T22:13:46.349Z,3.03
2022-09-06T22:16:28.065Z,2.83
2022-09-06T22:19:15.338Z,2.97
2022-09-06T22:21:55.720Z,3.50
2022-09-06T22:24:42.307Z,3.10
2022-09-06T22:27:29.461Z,2.95
2022-09-06T22:30:10.308Z,3.05
2022-09-06T22:32:50.734Z,3.03
2022-09-06T22:35:37.321Z,2.53
2022-09-06T22:38:24.385Z,3.15
2022-09-06T22:41:11.327Z,3.35
2022-09-06T22:43:57.330Z,3.10
2022-09-06T22:46:44.411Z,2.90
2022-09-06T22:49:31.322Z,3.00
2022-09-06T22:52:19.294Z,2.80
2022-09-06T22:55:06.455Z,3.20
2022-09-06T22:57:46.303Z,3.42
2022-09-06T23:00:27.567Z,2.58
2022-09-06T23:03:14.299Z,3.85
2022-09-06T23:06:00.637Z,3.78
2022-09-06T23:08:49.287Z,3.25
2022-09-06T23:11:39.259Z,2.95
2022-09-06T23:14:19.362Z,3.10
2022-09-06T23:17:06.255Z,3.58
2022-09-06T23:19:46.519Z,4.22
2022-09-06T23:22:33.267Z,3.70
2022-09-06T23:25:21.289Z,3.42
2022-09-06T23:28:08.375Z,3.40
2022-09-06T23:30:48.269Z,3.40
2022-09-06T23:33:36.242Z,3.60
2022-09-06T23:36:26.248Z,5.03
2022-09-06T23:39:15.238Z,3.40
2022-09-06T23:41:55.363Z,3.28
2022-09-06T23:44:42.270Z,3.28
2022-09-06T23:47:29.215Z,3.83
2022-09-06T23:50:09.954Z,3.75
2022-09-06T23:52:57.216Z,3.40
2022-09-06T23:55:37.966Z,3.10
2022-09-06T23:58:25.340Z,3.50
